Airfield :
LOGIN :

Register | Disclaimer

   EN    FR    IT 

 










Legend :    VFR   Marginal VFR   IFR   Intensive IFR   Very Intensive IFR
Visi :
Ceiling :
>= 8 km
>= 3000ft
5 to 8 km
1000 to 3000 ft
1500m to 5 km
500 to 1000 ft
800 to 1500m
200 to 500 ft
< 800m
< 200 ft
Symbols :   Thunderstorms  Fog  Heavy snow  Heavy precipitations  Wind > 20 kt
SIGMETs :     Misc.  Thunderstorms  Icing  Turbulence  Mountain Waves  Volcanic Ashes






- Airport Elevation : 291 ft
- IATA code : ORY


LFPO - Paris-Orly

CURRENT METAR :
  • 232330Z 03006KT 5000 BR NSC 00/M01 Q1025 TEMPO 4000 BR BKN007

EXPIRED METARs :
  • 232300Z 02006KT 5000 BR NSC M00/M01 Q1024 TEMPO 4000 BR BKN007
  • 232230Z 02003KT 5000 BR NSC M00/M01 Q1025 TEMPO 4000 BR BKN007
  • 232200Z 02004KT 6000 FEW010 M00/M01 Q1025 TEMPO 4000 BR BKN007
  • 232130Z 03006KT 6000 FEW010 00/M01 Q1025 BECMG 4000 BR BKN007

TAF TAF LFPO
Valid from the 24 at 00:00 until the 25 at 06:00 UTC


232300Z 2400/2506 04003KT 4000 BR FEW004
BECMG 2400/2403 2000 BR BKN004
PROB40
TEMPO 2403/2409 0500 FG VV///
PROB30
TEMPO 2405/2408 0500 FZFG
BECMG 2409/2412 9999 NSW FEW009
PROB30
TEMPO 2412/2416 BKN009
BECMG 2416/2418 OVC010
BECMG 2418/2421 2000 BR OVC005
PROB40
TEMPO 2423/2506 0500 FG VV///
ATIS : +33 1 49 75 65 80



MET'MAP, your aeronautical weather chart ! - Copyright ORBIFLY December 2007 - Disclaimer

ORBIFLY MET'MAP TEAM :

Programming & Development : Alexandra Zaïnal
Concept & original design : Baudouin d'Aumeries
Assistance for programming : Marc-Olivier Méhu
Technical & hardware support : Manuel Goepfert

Contact : metmap@orbifly.com




SOURCES & CREDITS :

   NOAA